Time;durP1;ratioP1;P1;durP2;ratioP2;P2;SDS_P1;SDS_P2;PMS_P1;PMS_P2;Temp;Humidity;BMP_temperature;BMP_pressure;BME280_temperature;BME280_humidity;BME280_pressure;Samples;Min_cycle;Max_cycle;Signal;HPM_P1;HPM_P2
2021/07/29 00:00:32;;;;;;;12.23;9.07;;;;;;;20.72;69.40;98234.47;5103161;28;20016;-76
2021/07/29 00:02:57;;;;;;;13.10;9.60;;;;;;;20.72;69.50;98244.84;5104131;28;20385;-76
2021/07/29 00:05:23;;;;;;;13.32;9.93;;;;;;;20.73;69.70;98238.09;5102189;28;20048;-75
2021/07/29 00:07:52;;;;;;;13.13;9.38;;;;;;;20.74;70.30;98243.28;5103956;28;20442;-75
2021/07/29 00:10:17;;;;;;;;;;;;;;;20.69;69.49;98243.56;5104615;28;20020;-77
2021/07/29 00:12:43;;;;;;;11.93;9.05;;;;;;;20.66;69.83;98241.53;5102084;28;19908;-76
2021/07/29 00:15:11;;;;;;;12.27;9.60;;;;;;;20.67;70.98;98240.34;5103355;28;20355;-76
2021/07/29 00:20:12;;;;;;;13.70;8.90;;;;;;;20.65;69.69;98234.34;5101374;28;20036;-77
2021/07/29 00:22:38;;;;;;;12.98;9.20;;;;;;;20.61;69.64;98230.69;5101954;28;20402;-76
2021/07/29 00:25:07;;;;;;;11.30;8.70;;;;;;;20.63;69.50;98231.94;5099126;28;20023;-76
2021/07/29 00:27:35;;;;;;;11.93;9.02;;;;;;;20.65;69.84;98225.97;5102463;27;20064;-76
2021/07/29 00:30:00;;;;;;;12.00;8.45;;;;;;;20.65;69.62;98231.56;5103734;28;20019;-76
2021/07/29 00:32:25;;;;;;;10.23;9.10;;;;;;;20.68;70.08;98228.84;5101828;28;20034;-76
2021/07/29 00:34:51;;;;;;;13.95;9.07;;;;;;;20.72;69.90;98234.47;5102686;28;20035;-76
2021/07/29 00:37:16;;;;;;;11.70;8.43;;;;;;;20.75;69.94;98233.75;5103378;28;20074;-76
2021/07/29 00:39:41;;;;;;;11.48;8.02;;;;;;;20.74;69.88;98222.97;5101363;28;20028;-76
2021/07/29 00:42:07;;;;;;;10.45;7.95;;;;;;;20.78;69.74;98221.09;5103148;28;20024;-76
2021/07/29 00:44:34;;;;;;;11.60;8.27;;;;;;;20.82;69.57;98225.53;5101232;28;20020;-76
2021/07/29 00:47:01;;;;;;;13.25;8.40;;;;;;;20.85;69.58;98232.34;5134112;27;20027;-76
2021/07/29 00:49:26;;;;;;;11.20;8.15;;;;;;;20.86;69.81;98211.66;5100420;28;20050;-75
2021/07/29 00:51:52;;;;;;;10.82;8.25;;;;;;;20.88;69.47;98225.25;5102120;28;20016;-76
2021/07/29 00:54:17;;;;;;;14.52;8.25;;;;;;;20.87;69.42;98224.41;5103059;28;20048;-76
2021/07/29 00:56:46;;;;;;;12.90;8.20;;;;;;;20.88;69.27;98226.03;5101012;28;20020;-75
2021/07/29 00:59:11;;;;;;;13.32;8.38;;;;;;;20.91;69.42;98218.91;5100987;28;20710;-76
2021/07/29 01:01:37;;;;;;;12.38;8.05;;;;;;;20.91;69.21;98222.50;5101332;28;20048;-76
2021/07/29 01:04:02;;;;;;;9.70;7.85;;;;;;;20.94;69.22;98218.97;5100787;28;20131;-76
2021/07/29 01:06:28;;;;;;;11.20;7.43;;;;;;;20.93;69.25;98222.94;5102560;28;20019;-76
2021/07/29 01:09:10;;;;;;;11.02;7.72;;;;;;;20.93;69.34;98220.16;5102361;28;20429;-76
2021/07/29 01:11:36;;;;;;;9.38;7.68;;;;;;;20.94;68.93;98218.97;5098803;28;20020;-76
2021/07/29 01:14:01;;;;;;;11.48;7.32;;;;;;;20.95;69.27;98220.59;5102790;28;20062;-75
2021/07/29 01:16:27;;;;;;;11.05;7.72;;;;;;;20.94;69.31;98216.19;5100922;28;20048;-76
2021/07/29 01:18:53;;;;;;;10.10;7.03;;;;;;;20.95;68.99;98219.78;5101903;28;20028;-76
2021/07/29 01:21:18;;;;;;;11.65;7.25;;;;;;;20.96;68.95;98210.25;5093969;28;20099;-75
2021/07/29 01:23:44;;;;;;;11.70;8.05;;;;;;;20.93;69.10;98219.34;5100136;28;20541;-75
2021/07/29 01:26:09;;;;;;;12.43;7.53;;;;;;;20.93;69.02;98217.38;5101782;28;20015;-76
2021/07/29 01:28:35;;;;;;;9.38;7.18;;;;;;;20.92;68.57;98218.53;5100388;28;20020;-75
2021/07/29 01:31:00;;;;;;;9.65;7.75;;;;;;;20.93;68.75;98217.38;5099984;28;20359;-76
2021/07/29 01:33:26;;;;;;;9.48;7.32;;;;;;;20.95;69.07;98217.00;5102252;28;20529;-75
2021/07/29 01:35:51;;;;;;;10.23;7.47;;;;;;;20.90;68.91;98206.94;5101487;28;20081;-76
2021/07/29 01:38:16;;;;;;;13.93;8.68;;;;;;;20.89;68.80;98210.13;5101807;28;20023;-76
2021/07/29 01:40:41;;;;;;;18.35;10.60;;;;;;;20.88;69.16;98208.50;5101893;28;20098;-76
2021/07/29 01:43:07;;;;;;;11.90;8.45;;;;;;;20.93;68.74;98211.00;5101400;28;20060;-75
2021/07/29 01:45:32;;;;;;;10.15;8.13;;;;;;;20.91;68.44;98207.78;5099498;28;20384;-75
2021/07/29 01:47:57;;;;;;;12.18;8.75;;;;;;;20.92;68.53;98210.19;5102548;28;20016;-76
2021/07/29 01:50:23;;;;;;;14.43;8.27;;;;;;;20.90;68.73;98215.31;5101653;28;20016;-76
2021/07/29 01:52:48;;;;;;;10.80;7.35;;;;;;;20.88;68.39;98214.88;5101539;28;20019;-75
2021/07/29 01:55:13;;;;;;;9.27;7.25;;;;;;;20.84;68.34;98207.66;5102845;28;20389;-76
2021/07/29 01:57:39;;;;;;;11.60;7.30;;;;;;;20.81;68.36;98218.34;5097829;28;20043;-76
2021/07/29 02:00:05;;;;;;;8.88;7.00;;;;;;;20.80;68.31;98222.31;5101885;28;20051;-75
2021/07/29 02:02:31;;;;;;;9.05;6.32;;;;;;;20.75;68.22;98219.81;5101961;28;20416;-76
2021/07/29 02:04:56;;;;;;;9.68;6.70;;;;;;;20.72;68.28;98214.19;5099924;28;20040;-76
2021/07/29 02:07:21;;;;;;;9.27;6.15;;;;;;;20.68;68.05;98219.66;5102179;28;20183;-76
2021/07/29 02:09:47;;;;;;;9.65;6.57;;;;;;;20.67;67.74;98209.69;5101517;28;20388;-76
2021/07/29 02:12:12;;;;;;;9.80;6.43;;;;;;;20.67;68.08;98216.09;5100495;28;20062;-76
2021/07/29 02:14:37;;;;;;;11.05;6.47;;;;;;;20.70;68.35;98222.91;5102255;28;20106;-75
2021/07/29 02:17:03;;;;;;;9.52;6.70;;;;;;;20.71;68.43;98226.50;5100957;28;20055;-75
2021/07/29 02:19:28;;;;;;;9.93;6.55;;;;;;;20.71;68.25;98224.50;5101104;28;20069;-77
2021/07/29 02:21:53;;;;;;;9.38;6.93;;;;;;;20.74;68.19;98225.75;5102518;28;20059;-76
2021/07/29 02:24:19;;;;;;;9.68;7.05;;;;;;;20.72;68.05;98228.91;5109485;28;20066;-76
2021/07/29 02:26:45;;;;;;;7.70;6.22;;;;;;;20.73;68.12;98229.72;5101214;28;20771;-76
2021/07/29 02:29:10;;;;;;;10.15;6.85;;;;;;;20.70;68.06;98230.47;5102250;28;20061;-76
2021/07/29 02:31:36;;;;;;;11.00;6.43;;;;;;;20.64;67.96;98233.53;5100583;28;20028;-75
2021/07/29 02:34:01;;;;;;;11.65;7.05;;;;;;;20.59;67.86;98230.25;5100914;28;20031;-75
2021/07/29 02:36:26;;;;;;;12.40;6.57;;;;;;;20.57;67.92;98238.97;5099472;28;20028;-75
2021/07/29 02:38:52;;;;;;;12.02;6.93;;;;;;;20.52;68.14;98240.09;5097483;28;20023;-76
2021/07/29 02:41:19;;;;;;;12.10;6.88;;;;;;;20.49;67.87;98235.25;5101299;28;20020;-76
2021/07/29 02:43:44;;;;;;;11.38;6.43;;;;;;;20.45;67.95;98242.75;5100540;28;20024;-75
2021/07/29 02:46:09;;;;;;;9.70;6.55;;;;;;;20.40;67.84;98245.81;5099507;28;20031;-75
2021/07/29 02:48:35;;;;;;;9.90;6.50;;;;;;;20.34;67.99;98241.72;5101245;28;20176;-75
2021/07/29 02:51:00;;;;;;;9.43;6.55;;;;;;;20.30;67.97;98246.41;5106065;28;20027;-75
2021/07/29 02:53:32;;;;;;;9.55;6.72;;;;;;;20.30;68.12;98240.84;5104342;28;20099;-75
2021/07/29 02:55:58;;;;;;;14.40;6.85;;;;;;;20.30;68.25;98243.63;5103912;28;20031;-75
2021/07/29 02:58:23;;;;;;;9.70;6.45;;;;;;;20.29;68.03;98242.00;5101256;28;20035;-73
2021/07/29 03:00:48;;;;;;;9.77;6.47;;;;;;;20.27;67.94;98236.00;5105248;28;20149;-75
2021/07/29 03:03:14;;;;;;;8.32;6.40;;;;;;;20.25;68.16;98239.16;5105267;28;20027;-75
2021/07/29 03:05:39;;;;;;;8.75;6.80;;;;;;;20.23;68.26;98236.72;5103053;28;20118;-75
2021/07/29 03:08:05;;;;;;;8.00;6.43;;;;;;;20.22;67.95;98237.91;5105320;28;20016;-75
2021/07/29 03:10:31;;;;;;;8.63;6.22;;;;;;;20.21;67.99;98243.84;5104530;28;20050;-76
2021/07/29 03:12:56;;;;;;;12.90;7.25;;;;;;;20.18;67.82;98250.94;5103657;28;20039;-75
2021/07/29 03:15:22;;;;;;;10.15;6.57;;;;;;;20.15;68.00;98251.69;5105393;28;20023;-76
2021/07/29 03:17:47;;;;;;;11.18;6.30;;;;;;;20.08;67.93;98249.53;5104016;28;20062;-74
2021/07/29 03:20:12;;;;;;;10.15;6.68;;;;;;;20.06;67.79;98242.75;5104152;27;20015;-75
2021/07/29 03:22:38;;;;;;;12.93;6.75;;;;;;;20.02;67.77;98241.84;5105347;28;20118;-75
2021/07/29 03:25:04;;;;;;;8.90;6.60;;;;;;;19.99;67.84;98248.16;5100659;28;20111;-76
2021/07/29 03:27:29;;;;;;;12.32;8.40;;;;;;;19.93;67.83;98242.06;5104669;28;20499;-75
2021/07/29 03:29:54;;;;;;;11.50;8.25;;;;;;;19.89;67.97;98246.75;5104845;28;20530;-76
2021/07/29 03:32:20;;;;;;;10.23;7.05;;;;;;;19.85;67.85;98248.63;5103149;28;20047;-76
2021/07/29 03:34:45;;;;;;;12.80;7.38;;;;;;;19.79;67.89;98245.28;5104940;28;20098;-74
2021/07/29 03:37:10;;;;;;;12.98;6.90;;;;;;;19.72;67.81;98245.16;5103711;28;20016;-75
2021/07/29 03:39:36;;;;;;;11.40;6.85;;;;;;;19.69;67.90;98257.00;5103297;28;20554;-73
2021/07/29 03:42:01;;;;;;;11.98;7.00;;;;;;;19.66;67.90;98264.09;5104725;28;20030;-76
2021/07/29 03:44:26;;;;;;;10.73;6.72;;;;;;;19.61;67.81;98254.06;5103128;28;20107;-75
2021/07/29 03:46:52;;;;;;;13.18;7.05;;;;;;;19.58;67.96;98263.13;5103616;28;20102;-76
2021/07/29 03:49:17;;;;;;;8.20;6.32;;;;;;;19.56;68.00;98257.13;5103468;28;20020;-75
2021/07/29 03:51:42;;;;;;;11.10;6.68;;;;;;;19.56;67.97;98253.53;5102810;28;20077;-75
2021/07/29 03:54:08;;;;;;;11.20;6.75;;;;;;;19.51;67.94;98254.59;5104318;28;20063;-75
2021/07/29 03:56:33;;;;;;;9.15;5.85;;;;;;;19.47;68.15;98253.72;5110434;28;20024;-75
2021/07/29 03:58:59;;;;;;;11.18;6.15;;;;;;;19.39;67.83;98243.59;5113942;28;20481;-76
2021/07/29 04:01:24;;;;;;;8.55;5.68;;;;;;;19.40;68.06;98250.75;5114303;28;20016;-76
2021/07/29 04:03:50;;;;;;;9.65;5.47;;;;;;;19.39;67.95;98243.59;5114624;28;20048;-75
2021/07/29 04:06:17;;;;;;;8.60;5.20;;;;;;;19.38;67.92;98248.34;5114976;28;20016;-75
2021/07/29 04:08:42;;;;;;;8.88;6.20;;;;;;;19.38;67.93;98253.09;5114793;28;20024;-75
2021/07/29 04:11:07;;;;;;;9.43;6.30;;;;;;;19.36;67.96;98255.44;5114878;28;20023;-76
2021/07/29 04:13:33;;;;;;;10.98;5.70;;;;;;;19.36;67.90;98253.47;5113672;28;20074;-76
2021/07/29 04:16:02;;;;;;;9.05;5.72;;;;;;;19.40;67.98;98250.75;5114806;28;20057;-75
2021/07/29 04:18:28;;;;;;;7.60;5.88;;;;;;;19.40;68.05;98250.75;5114843;28;20030;-75
2021/07/29 04:20:54;;;;;;;9.20;5.65;;;;;;;19.40;67.92;98253.53;5114802;28;20031;-75
2021/07/29 04:23:19;;;;;;;8.07;5.38;;;;;;;19.43;67.77;98252.81;5114481;28;20020;-76
2021/07/29 04:25:45;;;;;;;8.02;5.30;;;;;;;19.45;67.86;98256.88;5114401;28;20439;-75
2021/07/29 04:28:10;;;;;;;11.43;5.60;;;;;;;19.44;67.80;98263.59;5114524;28;20269;-75
2021/07/29 04:30:35;;;;;;;8.98;6.18;;;;;;;19.43;67.83;98258.38;5112792;28;20502;-74
2021/07/29 04:33:01;;;;;;;16.23;8.20;;;;;;;19.42;67.95;98265.94;5114307;28;20028;-76
2021/07/29 04:35:26;;;;;;;16.58;7.72;;;;;;;19.40;67.99;98273.81;5114377;28;20423;-74
2021/07/29 04:37:51;;;;;;;14.35;7.70;;;;;;;19.42;67.82;98267.88;5113902;28;20069;-75
2021/07/29 04:40:18;;;;;;;9.68;6.15;;;;;;;19.46;68.25;98277.94;5114075;28;20020;-74
2021/07/29 04:42:44;;;;;;;9.98;5.90;;;;;;;19.50;68.12;98278.03;5113795;28;20026;-75
2021/07/29 04:45:10;;;;;;;8.00;5.53;;;;;;;19.56;68.25;98276.59;5113980;28;20024;-75
2021/07/29 04:47:35;;;;;;;6.45;5.05;;;;;;;19.59;68.24;98275.88;5114029;27;20106;-75
2021/07/29 04:50:00;;;;;;;7.15;5.10;;;;;;;19.69;68.31;98284.84;5114053;28;20106;-75
2021/07/29 04:52:26;;;;;;;9.40;5.20;;;;;;;19.74;68.28;98288.13;5113845;28;20025;-74
2021/07/29 04:54:51;;;;;;;6.45;5.30;;;;;;;19.76;67.99;98279.44;5113715;28;20106;-74
2021/07/29 04:57:16;;;;;;;6.82;4.80;;;;;;;19.83;68.15;98289.91;5113812;28;20373;-75
2021/07/29 04:59:42;;;;;;;9.63;5.63;;;;;;;19.89;68.46;98285.72;5113616;28;20020;-75
2021/07/29 05:02:07;;;;;;;7.00;5.30;;;;;;;19.96;68.22;98293.41;5113591;28;20105;-74
2021/07/29 05:04:34;;;;;;;9.40;5.65;;;;;;;19.99;68.32;98282.34;5113396;28;20389;-74
2021/07/29 05:06:59;;;;;;;11.65;6.70;;;;;;;20.02;68.05;98297.53;5113491;28;20105;-75
2021/07/29 05:09:24;;;;;;;10.85;6.13;;;;;;;20.05;68.29;98291.25;5113424;27;20465;-75
2021/07/29 05:11:50;;;;;;;12.98;6.22;;;;;;;20.07;68.25;98291.69;5113248;28;20045;-75
2021/07/29 05:14:15;;;;;;;11.13;6.13;;;;;;;20.13;68.13;98298.56;5112967;28;20047;-76
2021/07/29 05:16:40;;;;;;;14.70;6.30;;;;;;;20.16;68.54;98294.25;5113428;28;20595;-75
2021/07/29 05:19:06;;;;;;;8.43;5.95;;;;;;;20.20;68.44;98293.13;5113523;28;20028;-75
2021/07/29 05:21:31;;;;;;;11.02;5.82;;;;;;;20.25;68.49;98294.03;5113521;28;20042;-73
2021/07/29 05:23:57;;;;;;;7.38;5.53;;;;;;;20.27;68.39;98292.50;5112038;28;20019;-74
2021/07/29 05:26:22;;;;;;;10.02;5.75;;;;;;;20.32;68.51;98286.66;5113349;28;20023;-74
2021/07/29 05:28:48;;;;;;;7.40;5.53;;;;;;;20.33;68.38;98293.84;5113470;28;20421;-74
2021/07/29 05:31:14;;;;;;;10.20;6.18;;;;;;;20.35;68.38;98294.28;5113326;28;20020;-74
2021/07/29 05:33:39;;;;;;;12.55;6.18;;;;;;;20.35;68.38;98290.66;5111862;28;20482;-74
2021/07/29 05:36:06;;;;;;;7.90;5.53;;;;;;;20.35;68.51;98290.66;5113200;28;20051;-74
2021/07/29 05:38:32;;;;;;;8.55;5.90;;;;;;;20.35;68.86;98282.31;5112761;28;20024;-74
2021/07/29 05:40:59;;;;;;;19.55;7.82;;;;;;;20.30;68.44;98285.38;5113104;28;20023;-74
2021/07/29 05:43:25;;;;;;;10.13;5.63;;;;;;;20.28;68.98;98287.72;5113156;28;20111;-75
2021/07/29 05:45:51;;;;;;;10.65;5.78;;;;;;;20.27;68.57;98292.50;5113209;28;20030;-74
2021/07/29 05:48:16;;;;;;;9.15;5.60;;;;;;;20.30;68.70;98285.38;5112948;28;20024;-72
2021/07/29 05:50:41;;;;;;;10.13;6.15;;;;;;;20.34;68.93;98281.53;5112889;28;20072;-74
2021/07/29 05:53:07;;;;;;;11.43;6.05;;;;;;;20.37;68.77;98291.94;5112885;28;20385;-74
2021/07/29 05:55:32;;;;;;;8.95;6.20;;;;;;;20.37;68.91;98286.38;5112860;28;20024;-74
2021/07/29 05:58:00;;;;;;;10.73;5.47;;;;;;;20.40;68.59;98292.34;5112689;28;20043;-74
2021/07/29 06:00:27;;;;;;;8.10;5.47;;;;;;;20.36;68.87;98292.28;5112882;28;20020;-74
2021/07/29 06:02:52;;;;;;;8.65;4.93;;;;;;;20.36;68.86;98289.50;5113007;28;20076;-75
2021/07/29 06:05:18;;;;;;;9.80;5.38;;;;;;;20.34;68.88;98289.06;5112483;28;20434;-74
2021/07/29 06:07:43;;;;;;;10.02;6.45;;;;;;;20.34;68.92;98297.41;5112919;28;20031;-75
2021/07/29 06:10:10;;;;;;;8.30;5.60;;;;;;;20.34;69.04;98289.88;5112944;28;20059;-73
2021/07/29 06:12:36;;;;;;;10.18;6.10;;;;;;;20.35;69.01;98304.59;5112604;28;20020;-74
2021/07/29 06:15:02;;;;;;;10.90;5.30;;;;;;;20.36;69.12;98289.50;5112758;28;20516;-74
2021/07/29 06:17:30;;;;;;;9.60;5.80;;;;;;;20.38;69.06;98289.94;5112826;28;20028;-73
2021/07/29 06:19:56;;;;;;;8.57;5.25;;;;;;;20.44;69.26;98294.03;5112963;28;20031;-74
2021/07/29 06:22:21;;;;;;;10.35;6.65;;;;;;;20.50;69.40;98300.94;5112654;28;20370;-74
2021/07/29 06:24:46;;;;;;;7.95;5.35;;;;;;;20.56;69.16;98295.09;5115182;28;20518;-75
2021/07/29 06:27:12;;;;;;;9.85;5.78;;;;;;;20.58;69.17;98292.72;5116907;28;20054;-74
2021/07/29 06:29:37;;;;;;;9.02;5.55;;;;;;;20.61;69.01;98297.53;5116991;28;20077;-74
2021/07/29 06:32:03;;;;;;;8.88;5.28;;;;;;;20.67;68.96;98298.88;5115539;28;20457;-75
2021/07/29 06:34:28;;;;;;;8.88;4.97;;;;;;;20.73;68.68;98304.97;5116810;28;20081;-75
2021/07/29 06:36:54;;;;;;;9.35;5.65;;;;;;;20.78;68.77;98299.13;5116854;28;20020;-74
2021/07/29 06:39:19;;;;;;;8.18;4.65;;;;;;;20.81;68.51;98307.53;5116656;28;20052;-74
2021/07/29 06:41:44;;;;;;;9.25;4.95;;;;;;;20.82;67.92;98308.34;5115314;28;20064;-75
2021/07/29 06:44:10;;;;;;;7.30;4.97;;;;;;;20.84;67.62;98302.41;5116469;28;20023;-74
2021/07/29 06:46:37;;;;;;;6.32;4.05;;;;;;;20.86;67.68;98311.22;5116642;28;20376;-74
2021/07/29 06:49:03;;;;;;;7.70;4.25;;;;;;;20.88;67.42;98308.84;5116476;28;20023;-75
2021/07/29 06:51:28;;;;;;;8.77;4.90;;;;;;;20.92;67.30;98306.94;5116544;28;20385;-74
2021/07/29 06:53:53;;;;;;;6.40;4.53;;;;;;;20.95;67.19;98304.22;5116418;28;20036;-74
2021/07/29 06:56:19;;;;;;;6.78;4.50;;;;;;;21.00;67.08;98305.88;5106115;27;20355;-73
2021/07/29 06:58:44;;;;;;;5.22;4.47;;;;;;;21.04;66.92;98308.75;5090631;28;20078;-75
2021/07/29 07:01:09;;;;;;;7.65;4.75;;;;;;;21.06;66.65;98309.19;5094476;28;20032;-75
2021/07/29 07:03:35;;;;;;;9.57;4.70;;;;;;;21.09;66.57;98311.25;5091828;28;20012;-74
2021/07/29 07:06:01;;;;;;;5.82;5.15;;;;;;;21.12;66.45;98311.28;5086454;28;20401;-74
2021/07/29 07:08:26;;;;;;;8.93;4.07;;;;;;;21.16;66.21;98308.59;5092850;28;20016;-74
2021/07/29 07:10:52;;;;;;;7.45;4.07;;;;;;;21.20;65.98;98308.63;5079903;28;20015;-75
2021/07/29 07:13:17;;;;;;;5.95;3.65;;;;;;;21.23;65.98;98308.69;5074946;28;20147;-75
2021/07/29 07:15:43;;;;;;;4.13;3.55;;;;;;;21.29;65.21;98308.38;5075622;28;20114;-76
2021/07/29 07:18:09;;;;;;;5.65;3.55;;;;;;;21.30;64.85;98299.66;5083814;28;20474;-74
2021/07/29 07:20:34;;;;;;;5.88;3.53;;;;;;;21.34;64.66;98311.69;5086109;28;20030;-75
2021/07/29 07:22:59;;;;;;;5.97;3.97;;;;;;;21.38;64.59;98301.41;5073604;28;20040;-75
2021/07/29 07:25:25;;;;;;;3.78;3.40;;;;;;;21.43;64.39;98294.69;5074098;28;20043;-74
2021/07/29 07:27:50;;;;;;;5.88;3.85;;;;;;;21.41;63.60;98300.63;5082055;28;20450;-75
2021/07/29 07:30:15;;;;;;;4.10;3.38;;;;;;;21.39;63.28;98293.81;5081761;28;20032;-75
2021/07/29 07:32:41;;;;;;;5.45;3.60;;;;;;;21.41;63.00;98297.03;5080215;28;20036;-74
2021/07/29 07:35:07;;;;;;;6.15;3.83;;;;;;;21.40;62.49;98301.00;5093325;28;20474;-74
2021/07/29 07:37:32;;;;;;;5.32;3.53;;;;;;;21.43;62.32;98300.25;5093794;28;20028;-75
2021/07/29 07:39:57;;;;;;;6.57;3.50;;;;;;;21.46;61.83;98293.94;5094792;28;20042;-75
2021/07/29 07:42:24;;;;;;;4.50;3.17;;;;;;;21.50;61.60;98288.41;5094884;28;20036;-75
2021/07/29 07:44:53;;;;;;;5.05;3.35;;;;;;;21.49;59.48;98289.59;5091777;28;20032;-75
2021/07/29 07:47:19;;;;;;;4.18;3.50;;;;;;;21.47;60.41;98283.56;5090666;28;20107;-75
2021/07/29 07:49:44;;;;;;;5.93;3.40;;;;;;;21.53;60.88;98284.88;5094735;28;20103;-76
2021/07/29 07:52:10;;;;;;;5.45;3.80;;;;;;;21.60;61.03;98287.78;5076261;28;20127;-75
2021/07/29 07:54:36;;;;;;;6.38;3.67;;;;;;;21.65;60.96;98279.13;5081026;28;20079;-78
2021/07/29 07:57:05;;;;;;;5.03;4.10;;;;;;;21.71;60.92;98277.63;5081848;28;20060;-75
2021/07/29 07:59:37;;;;;;;5.38;3.65;;;;;;;21.80;60.74;98273.75;5086550;28;20044;-76
2021/07/29 08:02:04;;;;;;;5.50;3.75;;;;;;;21.86;60.72;98278.63;5083553;28;20028;-77
2021/07/29 08:04:29;;;;;;;7.32;4.40;;;;;;;21.93;60.45;98274.34;5083492;28;20418;-78
2021/07/29 08:06:55;;;;;;;4.80;3.65;;;;;;;21.95;60.48;98269.19;5082536;28;20020;-75
2021/07/29 08:09:20;;;;;;;4.60;3.78;;;;;;;21.98;60.24;98263.63;5081323;28;20474;-71
2021/07/29 08:11:45;;;;;;;6.10;4.45;;;;;;;22.05;60.13;98251.75;5086751;28;20081;-75
2021/07/29 08:14:11;;;;;;;7.53;3.95;;;;;;;22.13;60.77;98255.47;5083568;28;20064;-75
2021/07/29 08:16:37;;;;;;;7.72;4.28;;;;;;;22.21;60.43;98268.31;5084030;28;20072;-78
2021/07/29 08:19:02;;;;;;;12.23;4.90;;;;;;;22.26;60.15;98270.78;5093270;28;21601;-74
2021/07/29 08:21:28;;;;;;;7.47;4.55;;;;;;;22.33;60.15;98275.66;5096132;28;20069;-76
2021/07/29 08:23:53;;;;;;;11.30;5.00;;;;;;;22.40;59.92;98270.16;5092698;28;20088;-77
2021/07/29 08:26:19;;;;;;;7.25;4.13;;;;;;;22.48;60.00;98270.25;5093080;28;20050;-79
2021/07/29 08:28:44;;;;;;;7.93;4.20;;;;;;;22.52;59.50;98269.13;5091168;28;20028;-76
2021/07/29 08:31:11;;;;;;;8.65;4.53;;;;;;;22.57;59.54;98268.81;5091021;28;20564;-75
2021/07/29 08:33:37;;;;;;;8.50;4.53;;;;;;;22.66;59.34;98278.84;5092279;28;20074;-76
2021/07/29 08:36:02;;;;;;;6.75;3.97;;;;;;;22.71;58.47;98270.13;5092858;28;20059;-76
2021/07/29 08:38:28;;;;;;;6.25;4.40;;;;;;;22.77;58.98;98267.81;5092962;28;20504;-76
2021/07/29 08:40:56;;;;;;;8.65;4.80;;;;;;;22.83;58.54;98280.22;5089365;28;20036;-81
2021/07/29 08:43:22;;;;;;;11.32;5.05;;;;;;;22.87;58.30;98276.31;5081565;28;20494;-77
2021/07/29 08:45:52;;;;;;;9.63;5.20;;;;;;;22.89;57.95;98273.94;5077864;28;20118;-76
2021/07/29 08:48:26;;;;;;;8.55;4.85;;;;;;;22.88;57.51;98272.31;5077566;28;20498;-76
2021/07/29 08:50:55;;;;;;;7.18;4.30;;;;;;;22.88;57.32;98274.28;5082531;28;20529;-76
2021/07/29 08:53:21;;;;;;;7.60;4.95;;;;;;;22.90;57.61;98269.94;5082806;28;20071;-76
2021/07/29 08:55:51;;;;;;;6.78;4.68;;;;;;;22.93;57.71;98270.38;5075082;28;20668;-73
2021/07/29 08:58:17;;;;;;;7.95;5.57;;;;;;;22.96;56.07;98270.38;5088146;28;20036;-73
2021/07/29 09:01:05;;;;;;;4.88;3.78;;;;;;;22.98;56.54;98264.44;5087137;28;20032;-71
2021/07/29 09:03:32;;;;;;;6.95;4.38;;;;;;;23.00;56.06;98276.03;5086318;28;20027;-76
2021/07/29 09:06:09;;;;;;;6.07;4.35;;;;;;;23.02;55.87;98282.84;5090690;28;20477;-79
2021/07/29 09:08:42;;;;;;;7.30;4.75;;;;;;;23.09;56.23;98287.69;5088054;28;20103;-75
2021/07/29 09:11:34;;;;;;;6.88;4.35;;;;;;;23.13;55.79;98288.53;5085913;28;20494;-78
2021/07/29 09:14:07;;;;;;;8.10;4.38;;;;;;;23.22;55.72;98296.66;5085749;28;20024;-72
2021/07/29 09:16:38;;;;;;;7.22;4.72;;;;;;;23.27;55.67;98292.69;5083885;28;20024;-74
2021/07/29 09:19:04;;;;;;;6.72;3.72;;;;;;;23.29;55.27;98282.72;5088909;28;20053;-74
2021/07/29 09:21:30;;;;;;;5.75;3.80;;;;;;;23.33;55.42;98275.16;5090587;28;20439;-72
2021/07/29 09:24:04;;;;;;;9.13;5.00;;;;;;;23.41;55.56;98280.81;5077856;28;20141;-71
2021/07/29 09:26:59;;;;;;;7.93;4.60;;;;;;;23.46;55.53;98283.25;5087422;28;20028;-74
2021/07/29 09:29:27;;;;;;;4.75;3.92;;;;;;;23.53;55.01;98274.91;5088216;28;20028;-73
2021/07/29 09:32:06;;;;;;;7.50;4.20;;;;;;;23.57;55.05;98266.53;5088039;28;20107;-74
2021/07/29 09:34:42;;;;;;;7.70;4.35;;;;;;;23.60;55.08;98263.78;5087156;28;20028;-73
2021/07/29 09:37:09;;;;;;;6.95;4.22;;;;;;;23.65;54.91;98257.00;5090341;28;20500;-71
2021/07/29 09:39:34;;;;;;;9.77;4.05;;;;;;;23.65;54.19;98265.41;5091052;28;20028;-72
2021/07/29 09:42:21;;;;;;;7.95;4.28;;;;;;;23.63;54.27;98268.59;5091157;28;20093;-75
2021/07/29 09:44:48;;;;;;;7.68;4.50;;;;;;;23.67;53.88;98260.22;5083383;28;20478;-72
2021/07/29 09:47:14;;;;;;;10.68;5.43;;;;;;;23.71;54.29;98260.22;5089581;28;20406;-72
2021/07/29 09:49:40;;;;;;;5.32;3.97;;;;;;;23.79;54.28;98265.50;5090124;28;20036;-71
2021/07/29 09:52:06;;;;;;;6.63;4.05;;;;;;;23.86;54.06;98255.53;5089514;28;20098;-73
2021/07/29 09:54:35;;;;;;;4.72;3.65;;;;;;;23.94;54.25;98263.59;5089596;28;20036;-73
2021/07/29 09:57:01;;;;;;;5.20;3.30;;;;;;;24.03;53.94;98259.69;5088764;28;20035;-73
2021/07/29 09:59:26;;;;;;;6.45;3.80;;;;;;;24.11;53.91;98257.72;5089065;28;20024;-73
2021/07/29 10:01:51;;;;;;;6.43;3.58;;;;;;;24.17;53.56;98258.94;5083294;28;20035;-77
2021/07/29 10:04:30;;;;;;;6.05;3.90;;;;;;;24.22;53.07;98258.56;5077480;28;20410;-76
2021/07/29 10:06:59;;;;;;;7.50;3.75;;;;;;;24.26;52.96;98247.38;5088659;28;20469;-79
2021/07/29 10:09:27;;;;;;;7.50;4.15;;;;;;;24.32;52.82;98254.97;5091087;28;20024;-77
2021/07/29 10:11:54;;;;;;;4.22;3.30;;;;;;;24.37;52.28;98248.22;5070953;28;20244;-77
2021/07/29 10:14:49;;;;;;;5.60;3.17;;;;;;;24.46;52.54;98245.03;5071539;28;20118;-77
2021/07/29 10:17:15;;;;;;;8.30;3.67;;;;;;;24.52;52.00;98251.88;5071725;28;20048;-75
2021/07/29 10:20:12;;;;;;;6.82;3.42;;;;;;;24.61;52.30;98243.06;5071996;28;20052;-76
2021/07/29 10:22:38;;;;;;;5.05;3.67;;;;;;;24.67;52.27;98244.28;5067857;28;20052;-74
2021/07/29 10:25:05;;;;;;;6.00;3.33;;;;;;;24.76;52.53;98243.94;5072105;28;20029;-75
2021/07/29 10:27:30;;;;;;;6.22;4.15;;;;;;;24.82;52.10;98245.97;5071975;28;20024;-75
2021/07/29 10:30:20;;;;;;;5.78;3.35;;;;;;;24.88;51.13;98243.56;5071431;28;20056;-74
2021/07/29 10:32:50;;;;;;;4.50;3.60;;;;;;;24.88;50.85;98235.16;5073707;28;20085;-77
2021/07/29 10:35:31;;;;;;;5.63;3.92;;;;;;;24.92;50.86;98240.75;5071159;28;20115;-78
2021/07/29 10:37:58;;;;;;;7.45;3.67;;;;;;;24.98;51.33;98236.34;5070687;28;20583;-77
2021/07/29 10:40:37;;;;;;;5.75;3.67;;;;;;;25.02;51.16;98236.38;5071878;28;20040;-78
2021/07/29 10:43:25;;;;;;;4.53;3.33;;;;;;;25.01;50.64;98223.56;5072050;28;20067;-78
2021/07/29 10:45:51;;;;;;;6.95;3.70;;;;;;;25.05;50.76;98230.75;5071981;28;20020;-75
2021/07/29 10:48:42;;;;;;;6.43;3.60;;;;;;;25.08;49.81;98232.78;5071548;28;20024;-74
2021/07/29 10:51:11;;;;;;;6.72;3.72;;;;;;;25.10;49.84;98235.97;5072831;28;20048;-73
2021/07/29 10:53:39;;;;;;;4.53;3.40;;;;;;;25.18;50.21;98224.75;5089043;28;20034;-76
2021/07/29 10:56:07;;;;;;;5.93;3.35;;;;;;;25.25;50.35;98227.56;5090099;28;20016;-81
2021/07/29 10:58:43;;;;;;;9.20;5.47;;;;;;;25.34;50.24;98230.75;5090164;28;20020;-82
2021/07/29 11:01:12;;;;;;;4.22;3.42;;;;;;;25.43;49.84;98221.94;5090752;28;20042;-76
2021/07/29 11:06:39;;;;;;;5.28;3.65;;;;;;;25.64;50.10;98228.75;5090424;28;20025;-78
2021/07/29 11:09:21;;;;;;;5.55;3.60;;;;;;;25.73;49.59;98219.91;5090340;28;20444;-76
2021/07/29 11:11:48;;;;;;;7.88;5.18;;;;;;;25.79;48.09;98221.09;5092914;28;20028;-78
2021/07/29 11:14:20;;;;;;;7.10;3.70;;;;;;;25.83;48.35;98219.91;5094329;28;20028;-78
2021/07/29 11:16:49;;;;;;;6.75;3.72;;;;;;;25.88;47.97;98217.88;5092239;28;20493;-79
2021/07/29 11:19:14;;;;;;;5.67;3.10;;;;;;;25.90;47.72;98219.06;5091105;28;20028;-78
2021/07/29 11:21:39;;;;;;;5.57;3.70;;;;;;;25.94;47.48;98219.03;5088673;28;20118;-78
2021/07/29 11:24:05;;;;;;;4.68;3.50;;;;;;;25.94;47.24;98210.63;5092474;28;20368;-78
2021/07/29 11:26:43;;;;;;;6.88;3.78;;;;;;;25.96;46.97;98219.44;5092228;28;20024;-76
2021/07/29 11:29:09;;;;;;;4.80;3.53;;;;;;;25.95;46.38;98204.59;5081496;28;20036;-73
2021/07/29 11:31:35;;;;;;;5.25;4.00;;;;;;;25.99;46.12;98211.00;5088535;28;20023;-77
2021/07/29 11:34:01;;;;;;;5.10;3.50;;;;;;;26.05;46.61;98205.78;5089991;28;20771;-77
2021/07/29 11:36:28;;;;;;;3.97;3.03;;;;;;;26.14;47.37;98208.16;5089799;28;20032;-78